sensor_id;sensor_type;location;lat;lon;timestamp;pressure;altitude;pressure_sealevel;temperature;humidity
38616;BME280;24370;51.986;4.666;2022-08-01T00:00:00;101759.31;;;28.48;49.58
38616;BME280;24370;51.986;4.666;2022-08-01T00:02:28;101762.25;;;29.43;47.54
38616;BME280;24370;51.986;4.666;2022-08-01T00:04:54;101757.94;;;29.41;47.92
38616;BME280;24370;51.986;4.666;2022-08-01T00:07:20;101767.25;;;28.37;50.37
38616;BME280;24370;51.986;4.666;2022-08-01T00:09:45;101765.34;;;28.89;48.43
38616;BME280;24370;51.986;4.666;2022-08-01T00:12:10;101766.59;;;28.72;49.78
38616;BME280;24370;51.986;4.666;2022-08-01T00:14:36;101762.56;;;28.90;48.53
38616;BME280;24370;51.986;4.666;2022-08-01T00:17:02;101765.38;;;30.20;45.74
38616;BME280;24370;51.986;4.666;2022-08-01T00:19:27;101767.94;;;28.27;50.59
38616;BME280;24370;51.986;4.666;2022-08-01T00:21:52;101761.00;;;28.75;49.05
38616;BME280;24370;51.986;4.666;2022-08-01T00:24:18;101771.75;;;28.75;48.65
38616;BME280;24370;51.986;4.666;2022-08-01T00:26:43;101771.69;;;29.01;48.80
38616;BME280;24370;51.986;4.666;2022-08-01T00:29:08;101776.47;;;28.71;49.39
38616;BME280;24370;51.986;4.666;2022-08-01T00:31:34;101766.03;;;28.80;49.95
38616;BME280;24370;51.986;4.666;2022-08-01T00:33:59;101775.59;;;29.81;46.47
38616;BME280;24370;51.986;4.666;2022-08-01T00:36:25;101772.78;;;29.82;46.77
38616;BME280;24370;51.986;4.666;2022-08-01T00:38:50;101775.06;;;30.11;45.49
38616;BME280;24370;51.986;4.666;2022-08-01T00:41:15;101770.91;;;30.07;45.76
38616;BME280;24370;51.986;4.666;2022-08-01T00:43:41;101775.69;;;29.68;47.51
38616;BME280;24370;51.986;4.666;2022-08-01T00:46:06;101775.78;;;29.66;47.29
38616;BME280;24370;51.986;4.666;2022-08-01T00:48:31;101773.59;;;29.95;46.21
38616;BME280;24370;51.986;4.666;2022-08-01T00:50:57;101770.25;;;28.71;49.03
38616;BME280;24370;51.986;4.666;2022-08-01T00:53:22;101768.69;;;28.92;49.45
38616;BME280;24370;51.986;4.666;2022-08-01T00:55:48;101762.47;;;30.34;45.89
38616;BME280;24370;51.986;4.666;2022-08-01T00:58:14;101761.56;;;29.88;45.92
38616;BME280;24370;51.986;4.666;2022-08-01T01:00:39;101766.97;;;30.11;45.72
38616;BME280;24370;51.986;4.666;2022-08-01T01:03:04;101759.91;;;29.39;47.72
38616;BME280;24370;51.986;4.666;2022-08-01T01:05:33;101765.63;;;28.73;49.67
38616;BME280;24370;51.986;4.666;2022-08-01T01:08:24;101766.00;;;29.30;48.77
38616;BME280;24370;51.986;4.666;2022-08-01T01:10:56;101772.03;;;27.67;52.56
38616;BME280;24370;51.986;4.666;2022-08-01T01:13:35;101768.47;;;29.79;48.00
38616;BME280;24370;51.986;4.666;2022-08-01T01:16:06;101759.00;;;28.14;53.66
38616;BME280;24370;51.986;4.666;2022-08-01T01:18:38;101756.19;;;29.88;48.22
38616;BME280;24370;51.986;4.666;2022-08-01T01:26:21;101756.22;;;30.34;46.29
38616;BME280;24370;51.986;4.666;2022-08-01T01:29:08;101747.13;;;30.80;44.99
38616;BME280;24370;51.986;4.666;2022-08-01T01:31:44;101755.06;;;28.83;49.81
38616;BME280;24370;51.986;4.666;2022-08-01T01:34:13;101751.94;;;29.73;47.69
38616;BME280;24370;51.986;4.666;2022-08-01T01:36:39;101756.03;;;29.43;48.10
38616;BME280;24370;51.986;4.666;2022-08-01T01:39:06;101762.88;;;29.47;47.31
38616;BME280;24370;51.986;4.666;2022-08-01T01:41:32;101767.94;;;29.99;46.75
38616;BME280;24370;51.986;4.666;2022-08-01T01:44:01;101764.72;;;30.52;45.63
38616;BME280;24370;51.986;4.666;2022-08-01T01:46:28;101770.50;;;29.65;47.67
38616;BME280;24370;51.986;4.666;2022-08-01T01:48:56;101769.94;;;29.00;49.20
38616;BME280;24370;51.986;4.666;2022-08-01T01:51:24;101763.00;;;28.84;49.13
38616;BME280;24370;51.986;4.666;2022-08-01T01:53:53;101771.09;;;28.84;49.48
38616;BME280;24370;51.986;4.666;2022-08-01T01:56:20;101765.53;;;29.71;47.41
38616;BME280;24370;51.986;4.666;2022-08-01T01:58:49;101769.25;;;28.59;50.72
38616;BME280;24370;51.986;4.666;2022-08-01T02:01:17;101768.44;;;29.92;46.33
38616;BME280;24370;51.986;4.666;2022-08-01T02:03:43;101776.69;;;29.78;47.65
38616;BME280;24370;51.986;4.666;2022-08-01T02:06:12;101767.13;;;30.43;45.29
38616;BME280;24370;51.986;4.666;2022-08-01T02:08:40;101772.41;;;30.34;46.15
38616;BME280;24370;51.986;4.666;2022-08-01T02:11:07;101770.38;;;30.02;46.59
38616;BME280;24370;51.986;4.666;2022-08-01T02:13:57;101765.81;;;30.49;45.46
38616;BME280;24370;51.986;4.666;2022-08-01T02:16:27;101768.97;;;30.20;45.85
38616;BME280;24370;51.986;4.666;2022-08-01T02:18:53;101766.97;;;30.22;45.88
38616;BME280;24370;51.986;4.666;2022-08-01T02:21:32;101768.75;;;29.52;47.41
38616;BME280;24370;51.986;4.666;2022-08-01T02:26:56;101769.69;;;30.22;45.76
38616;BME280;24370;51.986;4.666;2022-08-01T02:29:28;101768.00;;;30.21;45.33
38616;BME280;24370;51.986;4.666;2022-08-01T02:31:58;101770.19;;;30.16;45.13
38616;BME280;24370;51.986;4.666;2022-08-01T02:34:27;101766.28;;;30.66;43.74
38616;BME280;24370;51.986;4.666;2022-08-01T02:36:58;101765.75;;;30.04;45.69
38616;BME280;24370;51.986;4.666;2022-08-01T02:39:26;101772.38;;;30.22;45.03
38616;BME280;24370;51.986;4.666;2022-08-01T02:41:56;101767.06;;;29.51;46.40
38616;BME280;24370;51.986;4.666;2022-08-01T02:44:35;101768.09;;;30.20;44.82
38616;BME280;24370;51.986;4.666;2022-08-01T02:47:02;101788.34;;;30.37;44.38
38616;BME280;24370;51.986;4.666;2022-08-01T02:49:34;101774.03;;;29.54;46.30
38616;BME280;24370;51.986;4.666;2022-08-01T02:52:05;101777.47;;;29.56;46.85
38616;BME280;24370;51.986;4.666;2022-08-01T02:54:32;101778.25;;;30.39;44.76
38616;BME280;24370;51.986;4.666;2022-08-01T02:57:00;101771.72;;;29.85;45.26
38616;BME280;24370;51.986;4.666;2022-08-01T02:59:27;101769.28;;;29.09;46.45
38616;BME280;24370;51.986;4.666;2022-08-01T03:01:56;101761.59;;;28.91;47.57
38616;BME280;24370;51.986;4.666;2022-08-01T03:04:24;101759.19;;;29.48;46.09
38616;BME280;24370;51.986;4.666;2022-08-01T03:06:54;101767.09;;;29.63;45.64
38616;BME280;24370;51.986;4.666;2022-08-01T03:09:25;101774.75;;;29.80;44.96
38616;BME280;24370;51.986;4.666;2022-08-01T03:11:51;101781.53;;;29.13;46.63
38616;BME280;24370;51.986;4.666;2022-08-01T03:14:19;101784.59;;;28.96;46.91
38616;BME280;24370;51.986;4.666;2022-08-01T03:16:46;101790.91;;;29.44;45.96
38616;BME280;24370;51.986;4.666;2022-08-01T03:19:13;101784.22;;;29.13;46.23
38616;BME280;24370;51.986;4.666;2022-08-01T03:21:40;101793.31;;;29.23;46.27
38616;BME280;24370;51.986;4.666;2022-08-01T03:24:07;101789.00;;;29.21;46.11
38616;BME280;24370;51.986;4.666;2022-08-01T03:26:36;101793.56;;;29.20;46.33
38616;BME280;24370;51.986;4.666;2022-08-01T03:29:04;101789.00;;;29.21;46.36
38616;BME280;24370;51.986;4.666;2022-08-01T03:31:35;101789.78;;;27.70;49.19
38616;BME280;24370;51.986;4.666;2022-08-01T03:34:01;101790.63;;;27.83;50.97
38616;BME280;24370;51.986;4.666;2022-08-01T03:36:28;101781.19;;;28.81;47.88
38616;BME280;24370;51.986;4.666;2022-08-01T03:38:57;101785.31;;;29.10;46.53
38616;BME280;24370;51.986;4.666;2022-08-01T03:41:26;101792.00;;;29.42;46.17
38616;BME280;24370;51.986;4.666;2022-08-01T03:43:59;101792.50;;;29.47;45.76
38616;BME280;24370;51.986;4.666;2022-08-01T03:46:34;101792.47;;;30.07;43.92
38616;BME280;24370;51.986;4.666;2022-08-01T03:49:06;101798.41;;;29.88;44.39
38616;BME280;24370;51.986;4.666;2022-08-01T03:51:33;101786.09;;;29.72;44.84
38616;BME280;24370;51.986;4.666;2022-08-01T03:54:00;101791.69;;;29.93;43.90
38616;BME280;24370;51.986;4.666;2022-08-01T03:56:27;101787.59;;;29.52;45.18
38616;BME280;24370;51.986;4.666;2022-08-01T03:58:53;101780.91;;;29.93;44.41
38616;BME280;24370;51.986;4.666;2022-08-01T04:01:19;101788.78;;;30.08;43.98
38616;BME280;24370;51.986;4.666;2022-08-01T04:03:45;101788.03;;;29.94;44.10
38616;BME280;24370;51.986;4.666;2022-08-01T04:06:11;101786.81;;;29.74;44.47
38616;BME280;24370;51.986;4.666;2022-08-01T04:08:39;101792.47;;;30.07;44.01
38616;BME280;24370;51.986;4.666;2022-08-01T04:11:05;101788.28;;;30.03;44.09
38616;BME280;24370;51.986;4.666;2022-08-01T04:13:31;101784.81;;;29.89;44.55
38616;BME280;24370;51.986;4.666;2022-08-01T04:15:58;101790.81;;;29.09;45.80
38616;BME280;24370;51.986;4.666;2022-08-01T04:18:23;101790.72;;;28.09;48.32
38616;BME280;24370;51.986;4.666;2022-08-01T04:20:48;101781.78;;;29.58;45.31
38616;BME280;24370;51.986;4.666;2022-08-01T04:23:16;101784.09;;;29.87;43.79
38616;BME280;24370;51.986;4.666;2022-08-01T04:25:43;101789.69;;;29.84;43.50
38616;BME280;24370;51.986;4.666;2022-08-01T04:28:10;101791.72;;;29.34;44.78
38616;BME280;24370;51.986;4.666;2022-08-01T04:30:42;101789.84;;;29.34;45.30
38616;BME280;24370;51.986;4.666;2022-08-01T04:33:11;101796.25;;;29.20;44.84
38616;BME280;24370;51.986;4.666;2022-08-01T04:35:43;101796.91;;;29.48;44.55
38616;BME280;24370;51.986;4.666;2022-08-01T04:38:11;101791.72;;;29.34;45.05
38616;BME280;24370;51.986;4.666;2022-08-01T04:40:40;101798.22;;;29.18;45.24
38616;BME280;24370;51.986;4.666;2022-08-01T04:43:06;101803.22;;;29.23;45.43
38616;BME280;24370;51.986;4.666;2022-08-01T04:45:32;101805.56;;;29.03;45.70
38616;BME280;24370;51.986;4.666;2022-08-01T04:47:58;101803.19;;;28.36;47.41
38616;BME280;24370;51.986;4.666;2022-08-01T04:50:25;101809.09;;;28.67;47.22
38616;BME280;24370;51.986;4.666;2022-08-01T04:52:50;101806.25;;;29.31;45.06
38616;BME280;24370;51.986;4.666;2022-08-01T04:55:16;101815.88;;;29.82;43.67
38616;BME280;24370;51.986;4.666;2022-08-01T04:57:44;101811.81;;;29.41;45.17
38616;BME280;24370;51.986;4.666;2022-08-01T05:00:10;101812.94;;;29.13;45.72
38616;BME280;24370;51.986;4.666;2022-08-01T05:02:36;101814.69;;;29.26;45.98
38616;BME280;24370;51.986;4.666;2022-08-01T05:05:02;101814.88;;;29.72;45.16
38616;BME280;24370;51.986;4.666;2022-08-01T05:07:27;101814.44;;;29.30;46.15
38616;BME280;24370;51.986;4.666;2022-08-01T05:09:53;101813.59;;;29.65;45.27
38616;BME280;24370;51.986;4.666;2022-08-01T05:12:18;101818.66;;;29.69;45.66
38616;BME280;24370;51.986;4.666;2022-08-01T05:14:44;101817.13;;;29.54;45.72
38616;BME280;24370;51.986;4.666;2022-08-01T05:17:09;101811.94;;;29.75;45.36
38616;BME280;24370;51.986;4.666;2022-08-01T05:19:37;101816.94;;;29.92;44.37
38616;BME280;24370;51.986;4.666;2022-08-01T05:22:06;101815.56;;;29.63;45.62
38616;BME280;24370;51.986;4.666;2022-08-01T05:24:33;101815.50;;;30.11;43.78
38616;BME280;24370;51.986;4.666;2022-08-01T05:26:59;101807.22;;;30.48;43.61
38616;BME280;24370;51.986;4.666;2022-08-01T05:29:25;101815.03;;;30.40;43.82
38616;BME280;24370;51.986;4.666;2022-08-01T05:31:52;101818.63;;;29.93;44.63
38616;BME280;24370;51.986;4.666;2022-08-01T05:34:18;101821.94;;;30.78;43.11
38616;BME280;24370;51.986;4.666;2022-08-01T05:36:44;101821.34;;;30.52;43.88
38616;BME280;24370;51.986;4.666;2022-08-01T05:39:10;101816.13;;;30.37;43.37
38616;BME280;24370;51.986;4.666;2022-08-01T05:41:36;101817.78;;;30.74;42.87
38616;BME280;24370;51.986;4.666;2022-08-01T05:44:03;101816.94;;;29.92;44.28
38616;BME280;24370;51.986;4.666;2022-08-01T05:46:29;101823.31;;;30.03;44.48
38616;BME280;24370;51.986;4.666;2022-08-01T05:48:56;101826.47;;;30.43;44.13
38616;BME280;24370;51.986;4.666;2022-08-01T05:51:21;101829.31;;;30.65;42.98
38616;BME280;24370;51.986;4.666;2022-08-01T05:53:47;101830.44;;;30.04;44.72
38616;BME280;24370;51.986;4.666;2022-08-01T05:56:12;101826.34;;;30.56;43.33
38616;BME280;24370;51.986;4.666;2022-08-01T05:58:38;101828.25;;;30.20;44.15
38616;BME280;24370;51.986;4.666;2022-08-01T06:01:03;101831.09;;;30.98;42.70
38616;BME280;24370;51.986;4.666;2022-08-01T06:03:28;101835.22;;;30.58;43.58
38616;BME280;24370;51.986;4.666;2022-08-01T06:05:56;101833.94;;;29.69;45.60
38616;BME280;24370;51.986;4.666;2022-08-01T06:08:22;101836.72;;;29.56;46.25
38616;BME280;24370;51.986;4.666;2022-08-01T06:10:47;101838.78;;;27.86;51.15
38616;BME280;24370;51.986;4.666;2022-08-01T06:13:12;101846.56;;;29.07;48.04
38616;BME280;24370;51.986;4.666;2022-08-01T06:15:38;101841.59;;;29.26;48.11
38616;BME280;24370;51.986;4.666;2022-08-01T06:18:03;101852.50;;;28.09;50.30
38616;BME280;24370;51.986;4.666;2022-08-01T06:20:30;101848.53;;;29.42;47.75
38616;BME280;24370;51.986;4.666;2022-08-01T06:22:55;101847.91;;;28.24;50.46
38616;BME280;24370;51.986;4.666;2022-08-01T06:25:21;101842.53;;;28.63;50.30
38616;BME280;24370;51.986;4.666;2022-08-01T06:27:46;101835.09;;;29.29;47.70
38616;BME280;24370;51.986;4.666;2022-08-01T06:30:12;101844.69;;;29.57;47.94
38616;BME280;24370;51.986;4.666;2022-08-01T06:32:38;101842.25;;;29.17;48.18
38616;BME280;24370;51.986;4.666;2022-08-01T06:35:04;101849.84;;;29.60;47.13
38616;BME280;24370;51.986;4.666;2022-08-01T06:37:30;101853.59;;;29.82;46.91
38616;BME280;24370;51.986;4.666;2022-08-01T06:40:03;101852.69;;;29.94;46.27
38616;BME280;24370;51.986;4.666;2022-08-01T06:42:28;101857.34;;;29.68;46.68
38616;BME280;24370;51.986;4.666;2022-08-01T06:44:57;101862.63;;;27.78;51.59
38616;BME280;24370;51.986;4.666;2022-08-01T06:47:22;101867.22;;;28.16;51.97
38616;BME280;24370;51.986;4.666;2022-08-01T06:49:47;101856.41;;;28.56;50.93
38616;BME280;24370;51.986;4.666;2022-08-01T06:52:13;101859.44;;;27.99;53.57
38616;BME280;24370;51.986;4.666;2022-08-01T06:54:38;101864.72;;;29.53;48.01
38616;BME280;24370;51.986;4.666;2022-08-01T06:57:06;101867.91;;;28.33;51.23
38616;BME280;24370;51.986;4.666;2022-08-01T06:59:32;101868.81;;;28.72;51.42
38616;BME280;24370;51.986;4.666;2022-08-01T07:01:57;101868.06;;;28.04;53.87
38616;BME280;24370;51.986;4.666;2022-08-01T07:04:23;101867.69;;;28.61;51.56
38616;BME280;24370;51.986;4.666;2022-08-01T07:06:48;101876.69;;;27.54;54.03
38616;BME280;24370;51.986;4.666;2022-08-01T07:09:13;101879.97;;;28.53;51.43
38616;BME280;24370;51.986;4.666;2022-08-01T07:11:39;101889.19;;;26.69;57.26
38616;BME280;24370;51.986;4.666;2022-08-01T07:14:04;101888.22;;;27.97;53.03
38616;BME280;24370;51.986;4.666;2022-08-01T07:16:30;101892.44;;;26.45;59.17
38616;BME280;24370;51.986;4.666;2022-08-01T07:18:55;101887.66;;;26.65;57.24
38616;BME280;24370;51.986;4.666;2022-08-01T07:21:20;101897.88;;;27.03;58.22
38616;BME280;24370;51.986;4.666;2022-08-01T07:23:46;101895.44;;;28.49;51.80
38616;BME280;24370;51.986;4.666;2022-08-01T07:26:11;101902.19;;;27.05;57.34
38616;BME280;24370;51.986;4.666;2022-08-01T07:28:37;101903.22;;;27.03;57.04
38616;BME280;24370;51.986;4.666;2022-08-01T07:31:02;101905.88;;;27.17;55.53
38616;BME280;24370;51.986;4.666;2022-08-01T07:33:28;101893.59;;;27.97;53.30
38616;BME280;24370;51.986;4.666;2022-08-01T07:35:54;101913.59;;;26.50;56.21
38616;BME280;24370;51.986;4.666;2022-08-01T07:38:19;101904.31;;;27.84;51.97
38616;BME280;24370;51.986;4.666;2022-08-01T07:40:44;101912.88;;;27.76;53.01
38616;BME280;24370;51.986;4.666;2022-08-01T07:43:10;101912.44;;;28.63;49.87
38616;BME280;24370;51.986;4.666;2022-08-01T07:45:35;101924.66;;;27.17;52.40
38616;BME280;24370;51.986;4.666;2022-08-01T07:48:05;101917.84;;;27.82;51.91
38616;BME280;24370;51.986;4.666;2022-08-01T07:50:31;101921.41;;;27.26;53.68
38616;BME280;24370;51.986;4.666;2022-08-01T07:52:56;101922.13;;;28.52;48.25
38616;BME280;24370;51.986;4.666;2022-08-01T07:55:22;101930.03;;;27.17;52.93
38616;BME280;24370;51.986;4.666;2022-08-01T07:57:47;101939.06;;;27.02;53.51
38616;BME280;24370;51.986;4.666;2022-08-01T08:00:13;101941.28;;;27.38;53.39
38616;BME280;24370;51.986;4.666;2022-08-01T08:02:39;101936.56;;;28.11;49.24
38616;BME280;24370;51.986;4.666;2022-08-01T08:05:04;101941.28;;;27.38;52.84
38616;BME280;24370;51.986;4.666;2022-08-01T08:07:31;101948.00;;;27.73;49.90
38616;BME280;24370;51.986;4.666;2022-08-01T08:09:56;101942.56;;;27.87;49.27
38616;BME280;24370;51.986;4.666;2022-08-01T08:12:22;101944.81;;;28.08;49.28
38616;BME280;24370;51.986;4.666;2022-08-01T08:14:48;101943.53;;;27.16;51.47
38616;BME280;24370;51.986;4.666;2022-08-01T08:17:13;101936.97;;;28.58;48.09
38616;BME280;24370;51.986;4.666;2022-08-01T08:19:38;101949.38;;;27.66;50.33
38616;BME280;24370;51.986;4.666;2022-08-01T08:22:08;101943.97;;;27.93;48.46
38616;BME280;24370;51.986;4.666;2022-08-01T08:24:35;101957.59;;;27.63;49.03
38616;BME280;24370;51.986;4.666;2022-08-01T08:27:00;101952.34;;;28.03;47.84
38616;BME280;24370;51.986;4.666;2022-08-01T08:29:27;101940.66;;;27.89;47.46
38616;BME280;24370;51.986;4.666;2022-08-01T08:31:55;101939.88;;;28.02;47.43
38616;BME280;24370;51.986;4.666;2022-08-01T08:34:21;101948.69;;;29.71;43.82
38616;BME280;24370;51.986;4.666;2022-08-01T08:36:50;101942.59;;;28.68;46.06
38616;BME280;24370;51.986;4.666;2022-08-01T08:39:16;101954.09;;;27.19;46.77
38616;BME280;24370;51.986;4.666;2022-08-01T08:41:41;101943.22;;;28.58;45.94
38616;BME280;24370;51.986;4.666;2022-08-01T08:44:09;101948.94;;;29.18;44.10
38616;BME280;24370;51.986;4.666;2022-08-01T08:46:42;101957.38;;;31.06;40.93
38616;BME280;24370;51.986;4.666;2022-08-01T08:49:10;101946.28;;;30.63;41.78
38616;BME280;24370;51.986;4.666;2022-08-01T08:51:41;101950.16;;;30.12;41.56
38616;BME280;24370;51.986;4.666;2022-08-01T08:54:07;101954.91;;;30.91;38.79
38616;BME280;24370;51.986;4.666;2022-08-01T08:56:37;101956.25;;;29.03;41.84
38616;BME280;24370;51.986;4.666;2022-08-01T08:59:03;101954.25;;;29.94;41.19
38616;BME280;24370;51.986;4.666;2022-08-01T09:01:30;101961.38;;;30.77;39.18
38616;BME280;24370;51.986;4.666;2022-08-01T09:03:57;101963.22;;;30.66;40.83
38616;BME280;24370;51.986;4.666;2022-08-01T09:06:23;101961.91;;;31.39;38.06
38616;BME280;24370;51.986;4.666;2022-08-01T09:08:49;101968.38;;;30.80;37.90
38616;BME280;24370;51.986;4.666;2022-08-01T09:11:14;101967.28;;;32.06;36.73
38616;BME280;24370;51.986;4.666;2022-08-01T09:13:40;101980.19;;;31.13;37.62
38616;BME280;24370;51.986;4.666;2022-08-01T09:16:05;101964.69;;;34.50;33.82
38616;BME280;24370;51.986;4.666;2022-08-01T09:18:33;101961.28;;;34.95;31.54
38616;BME280;24370;51.986;4.666;2022-08-01T09:23:54;101985.00;;;33.56;32.92
38616;BME280;24370;51.986;4.666;2022-08-01T09:26:28;101976.53;;;34.10;33.06
38616;BME280;24370;51.986;4.666;2022-08-01T09:28:55;101978.13;;;32.80;33.07
38616;BME280;24370;51.986;4.666;2022-08-01T09:31:20;101988.06;;;31.27;34.98
38616;BME280;24370;51.986;4.666;2022-08-01T09:33:50;101982.97;;;33.39;32.42
38616;BME280;24370;51.986;4.666;2022-08-01T09:36:18;101984.03;;;32.53;33.80
38616;BME280;24370;51.986;4.666;2022-08-01T09:38:43;101989.00;;;32.48;33.90
38616;BME280;24370;51.986;4.666;2022-08-01T09:41:09;101989.94;;;34.60;30.45
38616;BME280;24370;51.986;4.666;2022-08-01T09:43:36;101988.50;;;33.78;31.94
38616;BME280;24370;51.986;4.666;2022-08-01T09:46:11;101997.34;;;35.99;28.98
38616;BME280;24370;51.986;4.666;2022-08-01T09:48:37;101995.78;;;32.42;33.89
38616;BME280;24370;51.986;4.666;2022-08-01T09:51:06;101990.72;;;32.91;33.57
38616;BME280;24370;51.986;4.666;2022-08-01T09:53:44;102002.78;;;34.19;31.67
38616;BME280;24370;51.986;4.666;2022-08-01T09:56:10;102002.16;;;33.76;30.65
38616;BME280;24370;51.986;4.666;2022-08-01T09:58:52;102003.78;;;33.07;32.60
38616;BME280;24370;51.986;4.666;2022-08-01T10:01:20;101990.75;;;34.90;30.88
38616;BME280;24370;51.986;4.666;2022-08-01T10:03:46;102002.47;;;34.71;29.59
38616;BME280;24370;51.986;4.666;2022-08-01T10:06:19;102004.38;;;35.74;29.15
38616;BME280;24370;51.986;4.666;2022-08-01T10:08:46;101997.81;;;34.24;30.39
38616;BME280;24370;51.986;4.666;2022-08-01T10:11:12;101997.00;;;32.50;31.59
38616;BME280;24370;51.986;4.666;2022-08-01T10:13:38;101995.66;;;32.65;31.91
38616;BME280;24370;51.986;4.666;2022-08-01T10:16:05;101999.34;;;33.78;31.75
38616;BME280;24370;51.986;4.666;2022-08-01T10:18:32;101995.81;;;35.69;28.23
38616;BME280;24370;51.986;4.666;2022-08-01T10:20:59;101993.34;;;34.82;28.67
38616;BME280;24370;51.986;4.666;2022-08-01T10:23:26;101991.91;;;35.53;27.76
38616;BME280;24370;51.986;4.666;2022-08-01T10:25:57;101990.31;;;35.23;29.19
38616;BME280;24370;51.986;4.666;2022-08-01T10:28:24;101985.31;;;36.02;29.03
38616;BME280;24370;51.986;4.666;2022-08-01T10:30:51;101984.47;;;33.62;30.63
38616;BME280;24370;51.986;4.666;2022-08-01T10:33:17;101989.66;;;35.11;29.44
38616;BME280;24370;51.986;4.666;2022-08-01T10:35:45;101988.47;;;34.76;29.10
38616;BME280;24370;51.986;4.666;2022-08-01T10:38:11;101987.41;;;34.96;30.28
38616;BME280;24370;51.986;4.666;2022-08-01T10:40:39;102003.03;;;35.32;29.43
38616;BME280;24370;51.986;4.666;2022-08-01T10:43:04;101993.19;;;32.73;31.44
38616;BME280;24370;51.986;4.666;2022-08-01T10:45:30;101991.50;;;33.94;29.67
38616;BME280;24370;51.986;4.666;2022-08-01T10:48:05;102000.06;;;34.29;30.56
38616;BME280;24370;51.986;4.666;2022-08-01T10:53:06;101993.38;;;32.81;32.20
38616;BME280;24370;51.986;4.666;2022-08-01T10:55:46;101996.91;;;33.03;31.91
38616;BME280;24370;51.986;4.666;2022-08-01T10:58:12;101992.47;;;34.81;29.59
38616;BME280;24370;51.986;4.666;2022-08-01T11:00:37;101989.97;;;34.41;30.83
38616;BME280;24370;51.986;4.666;2022-08-01T11:03:03;101999.06;;;34.59;29.43
38616;BME280;24370;51.986;4.666;2022-08-01T11:05:35;102002.03;;;35.33;30.31
38616;BME280;24370;51.986;4.666;2022-08-01T11:08:21;102014.25;;;34.32;30.00
38616;BME280;24370;51.986;4.666;2022-08-01T11:10:47;102010.44;;;34.92;28.70
38616;BME280;24370;51.986;4.666;2022-08-01T11:13:13;102010.31;;;32.62;32.21
38616;BME280;24370;51.986;4.666;2022-08-01T11:15:39;102002.97;;;32.53;32.46
38616;BME280;24370;51.986;4.666;2022-08-01T11:21:00;102002.34;;;35.20;29.76
38616;BME280;24370;51.986;4.666;2022-08-01T11:23:27;102009.03;;;33.30;31.38
38616;BME280;24370;51.986;4.666;2022-08-01T11:28:25;102017.59;;;34.93;29.51
38616;BME280;24370;51.986;4.666;2022-08-01T11:41:29;102018.03;;;31.70;33.46
38616;BME280;24370;51.986;4.666;2022-08-01T11:44:09;102013.91;;;33.15;30.27
38616;BME280;24370;51.986;4.666;2022-08-01T11:54:46;102001.22;;;34.65;29.05
38616;BME280;24370;51.986;4.666;2022-08-01T11:57:22;101998.06;;;36.37;27.14
38616;BME280;24370;51.986;4.666;2022-08-01T11:59:50;101997.47;;;36.51;26.12
38616;BME280;24370;51.986;4.666;2022-08-01T12:02:18;102005.44;;;35.35;27.49
38616;BME280;24370;51.986;4.666;2022-08-01T12:05:09;102013.44;;;33.72;28.81
38616;BME280;24370;51.986;4.666;2022-08-01T12:07:36;102008.94;;;34.60;27.70
38616;BME280;24370;51.986;4.666;2022-08-01T12:12:33;102010.28;;;35.04;26.88
38616;BME280;24370;51.986;4.666;2022-08-01T12:15:04;102013.41;;;35.46;26.93
38616;BME280;24370;51.986;4.666;2022-08-01T12:17:43;102022.50;;;35.55;26.94
38616;BME280;24370;51.986;4.666;2022-08-01T12:20:12;102019.34;;;36.42;24.62
38616;BME280;24370;51.986;4.666;2022-08-01T12:22:38;102022.69;;;34.29;27.41
38616;BME280;24370;51.986;4.666;2022-08-01T12:25:14;102015.81;;;36.13;26.42
38616;BME280;24370;51.986;4.666;2022-08-01T12:27:42;102022.47;;;34.02;27.99
38616;BME280;24370;51.986;4.666;2022-08-01T12:30:11;102020.50;;;32.91;29.15
38616;BME280;24370;51.986;4.666;2022-08-01T12:32:39;102016.06;;;32.90;29.04
38616;BME280;24370;51.986;4.666;2022-08-01T12:37:34;102011.75;;;33.40;28.54
38616;BME280;24370;51.986;4.666;2022-08-01T12:39:59;102018.59;;;33.34;28.03
38616;BME280;24370;51.986;4.666;2022-08-01T12:42:25;102017.59;;;33.76;28.17
38616;BME280;24370;51.986;4.666;2022-08-01T12:44:51;102015.84;;;33.75;28.04
38616;BME280;24370;51.986;4.666;2022-08-01T12:47:18;102012.66;;;35.16;26.06
38616;BME280;24370;51.986;4.666;2022-08-01T12:49:45;102023.56;;;32.23;29.90
38616;BME280;24370;51.986;4.666;2022-08-01T12:52:12;102010.91;;;32.45;29.00
38616;BME280;24370;51.986;4.666;2022-08-01T12:57:28;102011.38;;;32.71;28.69
38616;BME280;24370;51.986;4.666;2022-08-01T13:02:35;102015.16;;;33.32;28.01
38616;BME280;24370;51.986;4.666;2022-08-01T13:05:02;102000.72;;;34.99;26.35
38616;BME280;24370;51.986;4.666;2022-08-01T13:07:57;102014.50;;;34.10;27.04
38616;BME280;24370;51.986;4.666;2022-08-01T13:10:30;102011.31;;;33.85;27.01
38616;BME280;24370;51.986;4.666;2022-08-01T13:12:58;102011.13;;;35.70;26.48
38616;BME280;24370;51.986;4.666;2022-08-01T13:15:31;102004.63;;;34.87;25.88
38616;BME280;24370;51.986;4.666;2022-08-01T13:17:59;102006.44;;;32.97;28.20
38616;BME280;24370;51.986;4.666;2022-08-01T13:20:32;102004.13;;;33.64;26.88
38616;BME280;24370;51.986;4.666;2022-08-01T13:23:16;101995.94;;;33.95;25.89
38616;BME280;24370;51.986;4.666;2022-08-01T13:25:54;102001.13;;;34.38;25.86
38616;BME280;24370;51.986;4.666;2022-08-01T13:28:25;102002.69;;;34.50;26.72
38616;BME280;24370;51.986;4.666;2022-08-01T13:31:05;101999.34;;;33.97;27.67
38616;BME280;24370;51.986;4.666;2022-08-01T13:33:42;101994.41;;;32.90;27.45
38616;BME280;24370;51.986;4.666;2022-08-01T13:36:08;101995.53;;;32.88;26.92
38616;BME280;24370;51.986;4.666;2022-08-01T13:38:33;102005.91;;;30.12;29.88
38616;BME280;24370;51.986;4.666;2022-08-01T13:41:17;101992.78;;;32.24;27.75